Аэропорт: Омск-Центральный. Омск

ICAO: UNOO

METAR:
2021-04-21 22:00:00
UNOO 212200Z 04003MPS CAVOK M04/M10 Q1038 R07/CLRD60 NOSIG RMK QFE770
METAR:
2021-04-21 19:50:00
TAF UNOO 211950Z 2121/2221 03003G10MPS 8000 SCT033 TEMPO 2121/2202 2100 FU BECMG 2203/2205 09003G10MPS